sensor_id;sensor_type;location;lat;lon;timestamp;pressure;altitude;pressure_sealevel;temperature;humidity
40155;BME280;25875;48.202;16.334;2023-06-19T00:00:17;98908.41;;;21.37;50.08
40155;BME280;25875;48.202;16.334;2023-06-19T00:02:43;98913.28;;;21.33;50.07
40155;BME280;25875;48.202;16.334;2023-06-19T00:05:10;98904.84;;;21.28;50.37
40155;BME280;25875;48.202;16.334;2023-06-19T00:07:39;98909.91;;;21.31;50.22
40155;BME280;25875;48.202;16.334;2023-06-19T00:10:06;98916.63;;;21.27;50.22
40155;BME280;25875;48.202;16.334;2023-06-19T00:12:33;98853.63;;;20.86;50.45
40155;BME280;25875;48.202;16.334;2023-06-19T00:14:59;98909.03;;;21.23;50.19
40155;BME280;25875;48.202;16.334;2023-06-19T00:17:27;98833.19;;;20.67;50.54
40155;BME280;25875;48.202;16.334;2023-06-19T00:19:54;98911.88;;;21.21;50.42
40155;BME280;25875;48.202;16.334;2023-06-19T00:22:21;98901.44;;;21.18;50.29
40155;BME280;25875;48.202;16.334;2023-06-19T00:24:49;98902.59;;;21.16;50.49
40155;BME280;25875;48.202;16.334;2023-06-19T00:27:17;98514.69;;;18.72;50.45
40155;BME280;25875;48.202;16.334;2023-06-19T00:29:44;98904.78;;;21.12;50.88
40155;BME280;25875;48.202;16.334;2023-06-19T00:32:11;98912.50;;;21.07;50.95
40155;BME280;25875;48.202;16.334;2023-06-19T00:34:37;98897.50;;;21.04;51.01
40155;BME280;25875;48.202;16.334;2023-06-19T00:37:04;98911.44;;;21.00;51.44
40155;BME280;25875;48.202;16.334;2023-06-19T00:39:31;98907.22;;;20.97;51.46
40155;BME280;25875;48.202;16.334;2023-06-19T00:41:59;98909.38;;;20.94;51.90
40155;BME280;25875;48.202;16.334;2023-06-19T00:44:26;98918.94;;;20.88;52.08
40155;BME280;25875;48.202;16.334;2023-06-19T00:46:57;98913.41;;;20.90;51.69
40155;BME280;25875;48.202;16.334;2023-06-19T00:49:25;98931.56;;;20.88;51.81
40155;BME280;25875;48.202;16.334;2023-06-19T00:51:52;98912.03;;;20.86;52.03
40155;BME280;25875;48.202;16.334;2023-06-19T00:54:19;98917.75;;;20.82;52.10
40155;BME280;25875;48.202;16.334;2023-06-19T00:56:45;98877.00;;;20.52;52.42
40155;BME280;25875;48.202;16.334;2023-06-19T00:59:15;98915.53;;;20.78;52.32
40155;BME280;25875;48.202;16.334;2023-06-19T01:01:43;98907.94;;;20.73;52.36
40155;BME280;25875;48.202;16.334;2023-06-19T01:04:10;98920.72;;;20.71;52.24
40155;BME280;25875;48.202;16.334;2023-06-19T01:06:43;98916.16;;;20.72;52.33
40155;BME280;25875;48.202;16.334;2023-06-19T01:09:13;98918.19;;;20.70;52.63
40155;BME280;25875;48.202;16.334;2023-06-19T01:11:44;98912.63;;;20.71;52.77
40155;BME280;25875;48.202;16.334;2023-06-19T01:14:17;98917.66;;;20.66;52.96
40155;BME280;25875;48.202;16.334;2023-06-19T01:16:45;98921.66;;;20.62;52.75
40155;BME280;25875;48.202;16.334;2023-06-19T01:19:19;98926.72;;;20.65;52.33
40155;BME280;25875;48.202;16.334;2023-06-19T01:21:46;98892.16;;;20.53;52.32
40155;BME280;25875;48.202;16.334;2023-06-19T01:24:14;98913.28;;;20.65;52.38
40155;BME280;25875;48.202;16.334;2023-06-19T01:26:41;98914.75;;;20.60;52.65
40155;BME280;25875;48.202;16.334;2023-06-19T01:29:11;98917.44;;;20.60;52.76
40155;BME280;25875;48.202;16.334;2023-06-19T01:31:44;98915.22;;;20.55;53.06
40155;BME280;25875;48.202;16.334;2023-06-19T01:34:14;98913.00;;;20.50;53.10
40155;BME280;25875;48.202;16.334;2023-06-19T01:36:42;98905.41;;;20.46;53.17
40155;BME280;25875;48.202;16.334;2023-06-19T01:39:10;98915.50;;;20.44;53.38
40155;BME280;25875;48.202;16.334;2023-06-19T01:41:41;98907.56;;;20.42;53.50
40155;BME280;25875;48.202;16.334;2023-06-19T01:44:09;98898.97;;;20.39;53.71
40155;BME280;25875;48.202;16.334;2023-06-19T01:46:35;98906.19;;;20.38;53.62
40155;BME280;25875;48.202;16.334;2023-06-19T01:49:06;98888.53;;;20.36;53.72
40155;BME280;25875;48.202;16.334;2023-06-19T01:51:33;98896.22;;;20.31;53.96
40155;BME280;25875;48.202;16.334;2023-06-19T01:54:00;98901.28;;;20.34;53.96
40155;BME280;25875;48.202;16.334;2023-06-19T01:56:26;98899.38;;;20.26;54.16
40155;BME280;25875;48.202;16.334;2023-06-19T01:58:55;98893.84;;;20.28;53.90
40155;BME280;25875;48.202;16.334;2023-06-19T02:01:22;98905.31;;;20.30;53.93
40155;BME280;25875;48.202;16.334;2023-06-19T02:03:48;98902.22;;;20.25;54.36
40155;BME280;25875;48.202;16.334;2023-06-19T02:06:15;98909.06;;;20.19;54.41
40155;BME280;25875;48.202;16.334;2023-06-19T02:08:42;98905.59;;;20.09;54.65
40155;BME280;25875;48.202;16.334;2023-06-19T02:11:09;98902.38;;;20.05;54.80
40155;BME280;25875;48.202;16.334;2023-06-19T02:13:36;98906.75;;;20.06;54.76
40155;BME280;25875;48.202;16.334;2023-06-19T02:16:04;98898.06;;;20.12;54.51
40155;BME280;25875;48.202;16.334;2023-06-19T02:18:31;98499.09;;;17.69;54.15
40155;BME280;25875;48.202;16.334;2023-06-19T02:20:58;98904.13;;;20.14;53.97
40155;BME280;25875;48.202;16.334;2023-06-19T02:23:24;98791.25;;;19.43;54.10
40155;BME280;25875;48.202;16.334;2023-06-19T02:25:51;98914.00;;;20.06;53.97
40155;BME280;25875;48.202;16.334;2023-06-19T02:28:18;98908.06;;;20.02;53.91
40155;BME280;25875;48.202;16.334;2023-06-19T02:30:45;98913.75;;;19.99;53.98
40155;BME280;25875;48.202;16.334;2023-06-19T02:33:13;98910.53;;;19.96;54.37
40155;BME280;25875;48.202;16.334;2023-06-19T02:35:40;98914.22;;;19.95;54.29
40155;BME280;25875;48.202;16.334;2023-06-19T02:38:07;98909.16;;;19.92;54.19
40155;BME280;25875;48.202;16.334;2023-06-19T02:40:34;98908.16;;;19.93;54.17
40155;BME280;25875;48.202;16.334;2023-06-19T02:43:00;98906.09;;;19.86;54.13
40155;BME280;25875;48.202;16.334;2023-06-19T02:45:27;98902.56;;;19.86;54.50
40155;BME280;25875;48.202;16.334;2023-06-19T02:47:54;98908.25;;;19.83;54.35
40155;BME280;25875;48.202;16.334;2023-06-19T02:50:22;98902.28;;;19.79;54.50
40155;BME280;25875;48.202;16.334;2023-06-19T02:52:49;98899.47;;;19.81;54.43
40155;BME280;25875;48.202;16.334;2023-06-19T02:55:16;98906.28;;;19.75;54.49
40155;BME280;25875;48.202;16.334;2023-06-19T02:57:42;98899.75;;;19.78;54.64
40155;BME280;25875;48.202;16.334;2023-06-19T03:00:11;98908.97;;;19.75;54.95
40155;BME280;25875;48.202;16.334;2023-06-19T03:02:38;98912.50;;;19.76;54.79
40155;BME280;25875;48.202;16.334;2023-06-19T03:05:09;98912.81;;;19.73;54.74
40155;BME280;25875;48.202;16.334;2023-06-19T03:07:37;98916.50;;;19.72;55.45
40155;BME280;25875;48.202;16.334;2023-06-19T03:10:04;98918.13;;;19.65;55.31
40155;BME280;25875;48.202;16.334;2023-06-19T03:12:31;98915.97;;;19.68;55.46
40155;BME280;25875;48.202;16.334;2023-06-19T03:14:58;98922.88;;;19.71;55.32
40155;BME280;25875;48.202;16.334;2023-06-19T03:17:25;98916.66;;;19.70;55.30
40155;BME280;25875;48.202;16.334;2023-06-19T03:19:51;98915.28;;;19.66;55.92
40155;BME280;25875;48.202;16.334;2023-06-19T03:22:19;98859.78;;;19.30;55.86
40155;BME280;25875;48.202;16.334;2023-06-19T03:24:47;98915.44;;;19.65;55.78
40155;BME280;25875;48.202;16.334;2023-06-19T03:27:14;98913.59;;;19.65;56.24
40155;BME280;25875;48.202;16.334;2023-06-19T03:29:41;98919.66;;;19.67;55.92
40155;BME280;25875;48.202;16.334;2023-06-19T03:32:08;98922.09;;;19.61;56.61
40155;BME280;25875;48.202;16.334;2023-06-19T03:34:34;98929.47;;;19.59;56.36
40155;BME280;25875;48.202;16.334;2023-06-19T03:37:01;98929.63;;;19.57;56.81
40155;BME280;25875;48.202;16.334;2023-06-19T03:39:28;98935.84;;;19.58;56.81
40155;BME280;25875;48.202;16.334;2023-06-19T03:41:56;98933.47;;;19.54;56.84
40155;BME280;25875;48.202;16.334;2023-06-19T03:44:23;98927.78;;;19.58;57.00
40155;BME280;25875;48.202;16.334;2023-06-19T03:46:49;98903.81;;;19.46;56.81
40155;BME280;25875;48.202;16.334;2023-06-19T03:49:16;98920.88;;;19.55;57.07
40155;BME280;25875;48.202;16.334;2023-06-19T03:51:43;98921.19;;;19.52;57.38
40155;BME280;25875;48.202;16.334;2023-06-19T03:54:10;98790.16;;;18.73;57.42
40155;BME280;25875;48.202;16.334;2023-06-19T03:56:37;98927.53;;;19.51;57.56
40155;BME280;25875;48.202;16.334;2023-06-19T03:59:06;98934.47;;;19.53;57.46
40155;BME280;25875;48.202;16.334;2023-06-19T04:01:33;98923.88;;;19.52;58.02
40155;BME280;25875;48.202;16.334;2023-06-19T04:04:00;98924.72;;;19.52;57.86
40155;BME280;25875;48.202;16.334;2023-06-19T04:06:26;98932.91;;;19.51;57.91
40155;BME280;25875;48.202;16.334;2023-06-19T04:08:53;98934.31;;;19.55;58.08
40155;BME280;25875;48.202;16.334;2023-06-19T04:11:20;98935.00;;;19.57;58.28
40155;BME280;25875;48.202;16.334;2023-06-19T04:13:46;98932.63;;;19.54;58.25
40155;BME280;25875;48.202;16.334;2023-06-19T04:16:15;98935.00;;;19.57;58.13
40155;BME280;25875;48.202;16.334;2023-06-19T04:18:41;98893.00;;;19.29;58.14
40155;BME280;25875;48.202;16.334;2023-06-19T04:21:08;98935.53;;;19.61;57.85
40155;BME280;25875;48.202;16.334;2023-06-19T04:23:35;98943.75;;;19.59;58.30
40155;BME280;25875;48.202;16.334;2023-06-19T04:26:02;98944.75;;;19.58;58.31
40155;BME280;25875;48.202;16.334;2023-06-19T04:28:28;98942.06;;;19.58;58.31
40155;BME280;25875;48.202;16.334;2023-06-19T04:30:55;98942.75;;;19.60;58.34
40155;BME280;25875;48.202;16.334;2023-06-19T04:33:27;98802.88;;;17.58;58.10
40155;BME280;25875;48.202;16.334;2023-06-19T04:35:53;98946.16;;;19.62;58.24
40155;BME280;25875;48.202;16.334;2023-06-19T04:38:20;98953.75;;;19.67;58.04
40155;BME280;25875;48.202;16.334;2023-06-19T04:40:49;98955.28;;;19.69;58.17
40155;BME280;25875;48.202;16.334;2023-06-19T04:43:16;98959.53;;;19.72;57.99
40155;BME280;25875;48.202;16.334;2023-06-19T04:45:42;98965.59;;;19.74;57.98
40155;BME280;25875;48.202;16.334;2023-06-19T04:48:09;98960.53;;;19.71;58.36
40155;BME280;25875;48.202;16.334;2023-06-19T04:50:38;98962.44;;;19.78;58.02
40155;BME280;25875;48.202;16.334;2023-06-19T04:53:04;98968.66;;;19.79;58.01
40155;BME280;25875;48.202;16.334;2023-06-19T04:55:32;98950.22;;;19.66;58.23
40155;BME280;25875;48.202;16.334;2023-06-19T04:57:58;98889.88;;;19.33;58.16
40155;BME280;25875;48.202;16.334;2023-06-19T05:00:25;98968.47;;;19.90;57.98
40155;BME280;25875;48.202;16.334;2023-06-19T05:02:52;98971.16;;;19.90;57.75
40155;BME280;25875;48.202;16.334;2023-06-19T05:05:19;98978.09;;;19.93;57.87
40155;BME280;25875;48.202;16.334;2023-06-19T05:07:47;98974.94;;;19.97;57.74
40155;BME280;25875;48.202;16.334;2023-06-19T05:10:14;98949.72;;;19.80;57.28
40155;BME280;25875;48.202;16.334;2023-06-19T05:12:40;98974.25;;;19.95;56.96
40155;BME280;25875;48.202;16.334;2023-06-19T05:15:08;98971.41;;;19.97;56.89
40155;BME280;25875;48.202;16.334;2023-06-19T05:17:35;98978.31;;;19.99;57.25
40155;BME280;25875;48.202;16.334;2023-06-19T05:20:05;98978.56;;;20.06;56.81
40155;BME280;25875;48.202;16.334;2023-06-19T05:22:33;98967.47;;;20.09;56.75
40155;BME280;25875;48.202;16.334;2023-06-19T05:25:01;98974.00;;;20.06;56.85
40155;BME280;25875;48.202;16.334;2023-06-19T05:27:28;98974.16;;;20.05;56.72
40155;BME280;25875;48.202;16.334;2023-06-19T05:29:55;98981.63;;;19.93;56.67
40155;BME280;25875;48.202;16.334;2023-06-19T05:32:21;98972.16;;;20.07;56.61
40155;BME280;25875;48.202;16.334;2023-06-19T05:34:48;98758.44;;;18.86;55.86
40155;BME280;25875;48.202;16.334;2023-06-19T05:37:15;98974.47;;;20.19;55.68
40155;BME280;25875;48.202;16.334;2023-06-19T05:39:42;98969.94;;;20.20;56.09
40155;BME280;25875;48.202;16.334;2023-06-19T05:42:10;98940.34;;;20.02;55.29
40155;BME280;25875;48.202;16.334;2023-06-19T05:44:37;98973.88;;;20.26;55.50
40155;BME280;25875;48.202;16.334;2023-06-19T05:47:05;98985.34;;;20.28;55.29
40155;BME280;25875;48.202;16.334;2023-06-19T05:49:32;98985.03;;;20.31;55.31
40155;BME280;25875;48.202;16.334;2023-06-19T05:51:59;98984.72;;;20.34;55.12
40155;BME280;25875;48.202;16.334;2023-06-19T05:54:26;98979.19;;;20.35;54.59
40155;BME280;25875;48.202;16.334;2023-06-19T05:56:53;98979.19;;;20.35;53.99
40155;BME280;25875;48.202;16.334;2023-06-19T05:59:21;98973.63;;;20.37;53.71
40155;BME280;25875;48.202;16.334;2023-06-19T06:01:48;98984.56;;;20.35;53.26
40155;BME280;25875;48.202;16.334;2023-06-19T06:04:16;98976.19;;;20.38;53.27
40155;BME280;25875;48.202;16.334;2023-06-19T06:06:42;98982.56;;;20.37;53.32
40155;BME280;25875;48.202;16.334;2023-06-19T06:09:09;98990.00;;;20.43;53.22
40155;BME280;25875;48.202;16.334;2023-06-19T06:11:37;98984.16;;;20.48;53.08
40155;BME280;25875;48.202;16.334;2023-06-19T06:14:04;98986.69;;;20.49;53.07
40155;BME280;25875;48.202;16.334;2023-06-19T06:16:32;98993.78;;;20.50;52.57
40155;BME280;25875;48.202;16.334;2023-06-19T06:18:59;98991.44;;;20.56;51.83
40155;BME280;25875;48.202;16.334;2023-06-19T06:21:25;98989.91;;;20.53;52.13
40155;BME280;25875;48.202;16.334;2023-06-19T06:23:53;98991.97;;;20.59;51.66
40155;BME280;25875;48.202;16.334;2023-06-19T06:26:20;98994.19;;;20.64;51.89
40155;BME280;25875;48.202;16.334;2023-06-19T06:28:47;99002.81;;;20.67;51.48
40155;BME280;25875;48.202;16.334;2023-06-19T06:31:13;99005.28;;;20.61;50.56
40155;BME280;25875;48.202;16.334;2023-06-19T06:33:42;99008.50;;;20.64;51.01
40155;BME280;25875;48.202;16.334;2023-06-19T06:36:09;99008.56;;;20.72;50.60
40155;BME280;25875;48.202;16.334;2023-06-19T06:38:35;99007.88;;;20.70;50.91
40155;BME280;25875;48.202;16.334;2023-06-19T06:41:02;98874.09;;;20.01;51.02
40155;BME280;25875;48.202;16.334;2023-06-19T06:43:29;99001.91;;;20.85;51.01
40155;BME280;25875;48.202;16.334;2023-06-19T06:45:56;99003.94;;;20.82;50.68
40155;BME280;25875;48.202;16.334;2023-06-19T06:48:22;99001.06;;;20.84;50.19
40155;BME280;25875;48.202;16.334;2023-06-19T06:50:51;99003.81;;;20.92;50.27
40155;BME280;25875;48.202;16.334;2023-06-19T06:53:24;99002.81;;;20.93;49.84
40155;BME280;25875;48.202;16.334;2023-06-19T06:55:51;98998.03;;;21.05;49.73
40155;BME280;25875;48.202;16.334;2023-06-19T06:58:17;98977.09;;;20.99;49.73
40155;BME280;25875;48.202;16.334;2023-06-19T07:00:44;99010.75;;;21.21;49.79
40155;BME280;25875;48.202;16.334;2023-06-19T07:03:11;99005.38;;;21.21;49.75
40155;BME280;25875;48.202;16.334;2023-06-19T07:05:38;99000.19;;;21.27;49.49
40155;BME280;25875;48.202;16.334;2023-06-19T07:08:06;99003.06;;;21.34;49.06
40155;BME280;25875;48.202;16.334;2023-06-19T07:10:33;99006.97;;;21.39;48.93
40155;BME280;25875;48.202;16.334;2023-06-19T07:13:00;99000.59;;;21.49;48.66
40155;BME280;25875;48.202;16.334;2023-06-19T07:15:26;99000.34;;;21.68;48.68
40155;BME280;25875;48.202;16.334;2023-06-19T07:17:53;99005.28;;;21.81;48.83
40155;BME280;25875;48.202;16.334;2023-06-19T07:20:20;99006.50;;;21.86;48.54
40155;BME280;25875;48.202;16.334;2023-06-19T07:22:47;99004.00;;;22.01;47.57
40155;BME280;25875;48.202;16.334;2023-06-19T07:25:15;99007.06;;;22.22;47.95
40155;BME280;25875;48.202;16.334;2023-06-19T07:27:42;98918.16;;;21.88;47.26
40155;BME280;25875;48.202;16.334;2023-06-19T07:30:10;99006.78;;;22.58;46.90
40155;BME280;25875;48.202;16.334;2023-06-19T07:32:37;99007.63;;;22.50;46.56
40155;BME280;25875;48.202;16.334;2023-06-19T07:35:05;99001.88;;;22.53;46.73
40155;BME280;25875;48.202;16.334;2023-06-19T07:37:32;99000.88;;;22.79;45.59
40155;BME280;25875;48.202;16.334;2023-06-19T07:39:59;99001.84;;;22.94;45.10
40155;BME280;25875;48.202;16.334;2023-06-19T07:42:27;99005.44;;;22.78;45.64
40155;BME280;25875;48.202;16.334;2023-06-19T07:44:54;99002.16;;;23.15;45.25
40155;BME280;25875;48.202;16.334;2023-06-19T07:47:21;98996.16;;;23.44;45.09
40155;BME280;25875;48.202;16.334;2023-06-19T07:49:47;99000.06;;;23.42;44.65
40155;BME280;25875;48.202;16.334;2023-06-19T07:52:14;98995.25;;;23.60;44.36
40155;BME280;25875;48.202;16.334;2023-06-19T07:54:49;98991.03;;;23.88;42.63
40155;BME280;25875;48.202;16.334;2023-06-19T07:57:16;98985.81;;;23.87;42.97
40155;BME280;25875;48.202;16.334;2023-06-19T07:59:45;98989.41;;;24.10;43.52
40155;BME280;25875;48.202;16.334;2023-06-19T08:02:12;98997.28;;;24.43;42.60
40155;BME280;25875;48.202;16.334;2023-06-19T08:04:39;98990.16;;;24.64;42.05
40155;BME280;25875;48.202;16.334;2023-06-19T08:07:05;98998.28;;;24.87;42.15
40155;BME280;25875;48.202;16.334;2023-06-19T08:09:33;98994.63;;;24.95;40.97
40155;BME280;25875;48.202;16.334;2023-06-19T08:12:00;98996.97;;;24.98;40.97
40155;BME280;25875;48.202;16.334;2023-06-19T08:14:27;98998.31;;;25.02;40.59
40155;BME280;25875;48.202;16.334;2023-06-19T08:16:55;98998.13;;;25.04;40.43
40155;BME280;25875;48.202;16.334;2023-06-19T08:19:22;98992.25;;;25.15;40.51
40155;BME280;25875;48.202;16.334;2023-06-19T08:21:49;98702.69;;;23.33;40.43
40155;BME280;25875;48.202;16.334;2023-06-19T08:24:15;98986.53;;;25.24;40.43
40155;BME280;25875;48.202;16.334;2023-06-19T08:26:42;98987.88;;;25.58;40.05
40155;BME280;25875;48.202;16.334;2023-06-19T08:29:09;98987.47;;;25.02;40.79
40155;BME280;25875;48.202;16.334;2023-06-19T08:31:36;98988.34;;;25.32;40.58
40155;BME280;25875;48.202;16.334;2023-06-19T08:34:04;98988.31;;;25.62;40.46
40155;BME280;25875;48.202;16.334;2023-06-19T08:36:34;98984.88;;;25.53;40.86
40155;BME280;25875;48.202;16.334;2023-06-19T08:39:01;98988.91;;;25.93;40.70
40155;BME280;25875;48.202;16.334;2023-06-19T08:41:28;98991.81;;;26.06;41.00
40155;BME280;25875;48.202;16.334;2023-06-19T08:43:55;99001.13;;;26.18;40.36
40155;BME280;25875;48.202;16.334;2023-06-19T08:46:23;99004.88;;;26.39;40.26
40155;BME280;25875;48.202;16.334;2023-06-19T08:48:50;98998.59;;;26.60;39.79
40155;BME280;25875;48.202;16.334;2023-06-19T08:51:18;98997.69;;;26.74;40.19
40155;BME280;25875;48.202;16.334;2023-06-19T08:53:46;99002.63;;;26.92;39.68
40155;BME280;25875;48.202;16.334;2023-06-19T08:56:13;99000.16;;;26.97;38.97
40155;BME280;25875;48.202;16.334;2023-06-19T08:58:40;99005.25;;;27.06;39.03
40155;BME280;25875;48.202;16.334;2023-06-19T09:01:06;99002.78;;;27.11;38.93
40155;BME280;25875;48.202;16.334;2023-06-19T09:03:34;99004.25;;;27.14;38.11
40155;BME280;25875;48.202;16.334;2023-06-19T09:06:03;98997.25;;;27.26;38.65
40155;BME280;25875;48.202;16.334;2023-06-19T09:08:31;98986.22;;;27.34;38.07
40155;BME280;25875;48.202;16.334;2023-06-19T09:10:59;99000.97;;;27.53;37.88
40155;BME280;25875;48.202;16.334;2023-06-19T09:13:26;99006.69;;;27.65;37.67
40155;BME280;25875;48.202;16.334;2023-06-19T09:15:59;99002.50;;;27.62;37.54
40155;BME280;25875;48.202;16.334;2023-06-19T09:18:29;98948.13;;;27.34;37.56
40155;BME280;25875;48.202;16.334;2023-06-19T09:20:55;99000.75;;;27.89;37.25
40155;BME280;25875;48.202;16.334;2023-06-19T09:23:23;99004.47;;;27.81;37.20
40155;BME280;25875;48.202;16.334;2023-06-19T09:25:52;98999.47;;;27.85;36.62
40155;BME280;25875;48.202;16.334;2023-06-19T09:28:21;99006.22;;;27.96;36.66
40155;BME280;25875;48.202;16.334;2023-06-19T09:30:55;99001.28;;;27.71;36.30
40155;BME280;25875;48.202;16.334;2023-06-19T09:33:23;99005.25;;;27.69;36.27
40155;BME280;25875;48.202;16.334;2023-06-19T09:35:50;98995.25;;;27.83;36.28
40155;BME280;25875;48.202;16.334;2023-06-19T09:38:17;98959.09;;;27.54;36.29
40155;BME280;25875;48.202;16.334;2023-06-19T09:40:45;98999.09;;;27.95;36.01
40155;BME280;25875;48.202;16.334;2023-06-19T09:43:17;99002.66;;;27.95;36.39
40155;BME280;25875;48.202;16.334;2023-06-19T09:45:47;99001.16;;;27.86;36.94
40155;BME280;25875;48.202;16.334;2023-06-19T09:48:14;99012.31;;;27.98;37.01
40155;BME280;25875;48.202;16.334;2023-06-19T09:50:44;99010.66;;;28.03;35.77
40155;BME280;25875;48.202;16.334;2023-06-19T09:53:12;99002.28;;;28.11;35.58
40155;BME280;25875;48.202;16.334;2023-06-19T09:55:39;99007.50;;;28.06;36.18
40155;BME280;25875;48.202;16.334;2023-06-19T09:58:06;99003.28;;;27.97;35.99
40155;BME280;25875;48.202;16.334;2023-06-19T10:00:35;99005.41;;;28.02;35.46
40155;BME280;25875;48.202;16.334;2023-06-19T10:03:02;98999.56;;;28.18;35.96
40155;BME280;25875;48.202;16.334;2023-06-19T10:05:31;98992.47;;;28.24;35.75
40155;BME280;25875;48.202;16.334;2023-06-19T10:07:58;99002.53;;;28.30;35.46
40155;BME280;25875;48.202;16.334;2023-06-19T10:10:27;98990.34;;;28.19;35.90
40155;BME280;25875;48.202;16.334;2023-06-19T10:12:56;98993.53;;;28.29;35.75
40155;BME280;25875;48.202;16.334;2023-06-19T10:15:25;98999.19;;;28.34;36.33
40155;BME280;25875;48.202;16.334;2023-06-19T10:17:59;98986.44;;;28.48;35.59
40155;BME280;25875;48.202;16.334;2023-06-19T10:20:28;98983.31;;;28.58;35.21
40155;BME280;25875;48.202;16.334;2023-06-19T10:23:02;98986.41;;;28.41;35.03
40155;BME280;25875;48.202;16.334;2023-06-19T10:25:32;98981.38;;;28.38;34.99
40155;BME280;25875;48.202;16.334;2023-06-19T10:27:59;98976.59;;;28.47;35.80
40155;BME280;25875;48.202;16.334;2023-06-19T10:30:27;98983.09;;;28.66;35.49
40155;BME280;25875;48.202;16.334;2023-06-19T10:32:56;98986.44;;;28.68;35.04
40155;BME280;25875;48.202;16.334;2023-06-19T10:35:24;98982.47;;;28.70;34.92
40155;BME280;25875;48.202;16.334;2023-06-19T10:37:51;98979.94;;;28.89;34.09
40155;BME280;25875;48.202;16.334;2023-06-19T10:40:18;98981.84;;;28.82;34.71
40155;BME280;25875;48.202;16.334;2023-06-19T10:42:45;98982.66;;;28.82;34.51
40155;BME280;25875;48.202;16.334;2023-06-19T10:45:13;98981.41;;;28.91;34.58
40155;BME280;25875;48.202;16.334;2023-06-19T10:47:41;98987.28;;;28.95;34.22
40155;BME280;25875;48.202;16.334;2023-06-19T10:50:14;98988.13;;;29.08;35.17
40155;BME280;25875;48.202;16.334;2023-06-19T10:52:42;98947.44;;;28.81;35.17
40155;BME280;25875;48.202;16.334;2023-06-19T10:55:10;98981.19;;;28.99;35.00
40155;BME280;25875;48.202;16.334;2023-06-19T10:57:37;98984.53;;;29.15;34.79
40155;BME280;25875;48.202;16.334;2023-06-19T11:00:06;98980.97;;;29.21;33.68
40155;BME280;25875;48.202;16.334;2023-06-19T11:02:40;98977.81;;;29.17;34.05
40155;BME280;25875;48.202;16.334;2023-06-19T11:05:09;98987.28;;;29.15;33.48
40155;BME280;25875;48.202;16.334;2023-06-19T11:07:38;98974.69;;;29.00;33.63
40155;BME280;25875;48.202;16.334;2023-06-19T11:10:06;98979.13;;;29.01;32.85
40155;BME280;25875;48.202;16.334;2023-06-19T11:12:33;98974.28;;;29.10;32.89
40155;BME280;25875;48.202;16.334;2023-06-19T11:15:03;98969.22;;;29.14;33.09
40155;BME280;25875;48.202;16.334;2023-06-19T11:17:30;98975.97;;;29.04;33.11
40155;BME280;25875;48.202;16.334;2023-06-19T11:19:57;98972.81;;;29.07;33.75
40155;BME280;25875;48.202;16.334;2023-06-19T11:22:36;98970.72;;;29.10;32.83
40155;BME280;25875;48.202;16.334;2023-06-19T11:25:05;98949.94;;;29.02;33.46
40155;BME280;25875;48.202;16.334;2023-06-19T11:27:32;98968.59;;;29.12;32.67
40155;BME280;25875;48.202;16.334;2023-06-19T11:30:00;98909.66;;;28.84;32.21
40155;BME280;25875;48.202;16.334;2023-06-19T11:32:31;98967.09;;;29.29;31.72
40155;BME280;25875;48.202;16.334;2023-06-19T11:35:04;98975.31;;;29.16;32.60
40155;BME280;25875;48.202;16.334;2023-06-19T11:37:33;98967.78;;;29.04;32.46
40155;BME280;25875;48.202;16.334;2023-06-19T11:40:00;98974.50;;;29.02;33.14
40155;BME280;25875;48.202;16.334;2023-06-19T11:42:32;98977.63;;;29.05;31.74
40155;BME280;25875;48.202;16.334;2023-06-19T11:45:00;98974.50;;;29.02;30.17
40155;BME280;25875;48.202;16.334;2023-06-19T11:47:29;98965.66;;;28.93;30.31
40155;BME280;25875;48.202;16.334;2023-06-19T11:49:56;98959.38;;;28.93;31.96
40155;BME280;25875;48.202;16.334;2023-06-19T11:52:23;98968.38;;;28.34;29.20
40155;BME280;25875;48.202;16.334;2023-06-19T11:54:50;98956.03;;;28.58;32.15
40155;BME280;25875;48.202;16.334;2023-06-19T11:57:17;98951.84;;;28.68;30.63
40155;BME280;25875;48.202;16.334;2023-06-19T11:59:45;98951.00;;;28.81;30.23
40155;BME280;25875;48.202;16.334;2023-06-19T12:02:12;98962.31;;;28.91;30.52
40155;BME280;25875;48.202;16.334;2023-06-19T12:04:39;98957.91;;;28.90;28.65
40155;BME280;25875;48.202;16.334;2023-06-19T12:07:06;98955.19;;;28.90;28.26
40155;BME280;25875;48.202;16.334;2023-06-19T12:09:33;98956.66;;;28.73;28.36
40155;BME280;25875;48.202;16.334;2023-06-19T12:12:00;98955.19;;;28.84;28.80
40155;BME280;25875;48.202;16.334;2023-06-19T12:14:27;98858.75;;;28.32;29.05
40155;BME280;25875;48.202;16.334;2023-06-19T12:16:55;98946.19;;;28.76;29.79
40155;BME280;25875;48.202;16.334;2023-06-19T12:19:22;98940.72;;;28.70;26.69
40155;BME280;25875;48.202;16.334;2023-06-19T12:21:49;98940.94;;;28.75;28.38
40155;BME280;25875;48.202;16.334;2023-06-19T12:24:15;98891.06;;;28.48;31.47
40155;BME280;25875;48.202;16.334;2023-06-19T12:26:42;98936.97;;;28.71;30.05
40155;BME280;25875;48.202;16.334;2023-06-19T12:29:09;98940.13;;;28.55;30.83
40155;BME280;25875;48.202;16.334;2023-06-19T12:31:36;98943.47;;;28.70;30.17
40155;BME280;25875;48.202;16.334;2023-06-19T12:34:04;98938.00;;;28.63;30.31
40155;BME280;25875;48.202;16.334;2023-06-19T12:36:31;98940.75;;;28.63;29.58
40155;BME280;25875;48.202;16.334;2023-06-19T12:38:59;98937.38;;;28.48;31.39
40155;BME280;25875;48.202;16.334;2023-06-19T12:41:25;98935.28;;;28.63;29.24
40155;BME280;25875;48.202;16.334;2023-06-19T12:43:52;98922.06;;;28.60;30.20
40155;BME280;25875;48.202;16.334;2023-06-19T12:46:19;98929.63;;;28.71;30.26
40155;BME280;25875;48.202;16.334;2023-06-19T12:48:46;98931.50;;;28.71;29.86
40155;BME280;25875;48.202;16.334;2023-06-19T12:51:17;98932.75;;;28.75;30.94